Maersk Kalamata — VRPE8 — position and weather

sailwx.info

Track history (hours):
 
Tides and Currents Weather Stations Pressure Air Temp Water Temp Dewpoint Dewpoint Depression Visibility Wind Speed Wind Dir Waves Ship Positions

Maersk Kalamata

Last reported at 2018-Jun-22 13:52 UTC. Time now 2018-Jun-25 02:26 UTC.
Position N 35°02' E 129°26'.

Length 304 m; draft 13.1 m.

Type: Ship (hazmat cat A). MMSI: 477510600.

Date/timePositionNaut miles runAvg speedWind from/ knotsBaromVisibWave heightAir tempDewpointWater temp
2018-Jun-22 13:52N 35°02' E 129°26'29 1.5
2018-Jun-21 18:38N 34°56' E 128°51'86117.6
2018-Jun-19 17:37N 23°47' E 118°29'1817.2
2018-Jun-19 16:33N 23°35' E 118°13'117.5
2018-Jun-19 16:30N 23°35' E 118°13'1417.5
2018-Jun-19 15:44N 23°26' E 118°01'417.3
2018-Jun-19 15:30N 23°24' E 117°58'817.1
2018-Jun-19 15:01N 23°19' E 117°51'1016.3
2018-Jun-19 14:24N 23°13' E 117°41'  
2018-Jun-17 10:10N 24°16' E 118°14'211.7
2018-Jun-17 10:00N 24°18' E 118°12'611.7
2018-Jun-17 09:30N 24°22' E 118°08'611.9
2018-Jun-17 09:00N 24°26' E 118°03'2 3.4
2018-Jun-17 08:24N 24°27' E 118°01'0 0.0
2018-Jun-17 08:00N 24°27' E 118°01'0 0.0
2018-Jun-17 07:27N 24°27' E 118°01'0 0.0
2018-Jun-17 07:00N 24°27' E 118°01'0 0.0
2018-Jun-17 06:30N 24°27' E 118°01'0 0.0
2018-Jun-17 06:00N 24°27' E 118°01'0 0.0
2018-Jun-17 05:27N 24°27' E 118°01'0 0.0
2018-Jun-17 05:00N 24°27' E 118°01'0 0.0
2018-Jun-17 04:30N 24°27' E 118°01'0 0.0
2018-Jun-17 04:00N 24°27' E 118°01'0 0.0
2018-Jun-17 03:30N 24°27' E 118°01'0 0.0
2018-Jun-17 03:00N 24°27' E 118°01'0 0.0
2018-Jun-17 02:30N 24°27' E 118°01'0 0.0
2018-Jun-17 02:00N 24°27' E 118°01'0 0.0
2018-Jun-17 01:30N 24°27' E 118°01'0 0.0
2018-Jun-17 01:00N 24°27' E 118°01'0 0.0
2018-Jun-17 00:27N 24°27' E 118°01'0 0.0
2018-Jun-17 00:00N 24°27' E 118°01'1 2.5
2018-Jun-16 23:30N 24°26' E 118°02'510.8
2018-Jun-16 23:00N 24°23' E 118°07'5 9.6
2018-Jun-16 22:30N 24°20' E 118°11'1012.0
2018-Jun-16 21:39N 24°12' E 118°18'212.8
2018-Jun-16 21:28N 24°12' E 118°21'433 9.7
2018-Jun-15 00:39N 30°37' E 122°03'1 5.8
2018-Jun-15 00:29N 30°36' E 122°04'29 2.1
2018-Jun-14 10:54N 30°28' E 122°36'  
Track history (hours):
 
Tides and Currents Weather Stations Pressure Air Temp Water Temp Dewpoint Dewpoint Depression Visibility Wind Speed Wind Dir Waves Ship Positions

Maersk Kalamata

Last reported at 2018-Jun-22 13:52 UTC. Time now 2018-Jun-25 02:26 UTC.
Position N 35°02' E 129°26'.

Length 304 m; draft 13.1 m.

Type: Ship (hazmat cat A). MMSI: 477510600.

Date/timePositionNaut miles runAvg speedWind from/ knotsBaromVisibWave heightAir tempDewpointWater temp
2018-Jun-22 13:52N 35°02' E 129°26'29 1.5
2018-Jun-21 18:38N 34°56' E 128°51'86117.6
2018-Jun-19 17:37N 23°47' E 118°29'1817.2
2018-Jun-19 16:33N 23°35' E 118°13'117.5
2018-Jun-19 16:30N 23°35' E 118°13'1417.5
2018-Jun-19 15:44N 23°26' E 118°01'417.3
2018-Jun-19 15:30N 23°24' E 117°58'817.1
2018-Jun-19 15:01N 23°19' E 117°51'1016.3
2018-Jun-19 14:24N 23°13' E 117°41'  
2018-Jun-17 10:10N 24°16' E 118°14'211.7
2018-Jun-17 10:00N 24°18' E 118°12'611.7
2018-Jun-17 09:30N 24°22' E 118°08'611.9
2018-Jun-17 09:00N 24°26' E 118°03'2 3.4
2018-Jun-17 08:24N 24°27' E 118°01'0 0.0
2018-Jun-17 08:00N 24°27' E 118°01'0 0.0
2018-Jun-17 07:27N 24°27' E 118°01'0 0.0
2018-Jun-17 07:00N 24°27' E 118°01'0 0.0
2018-Jun-17 06:30N 24°27' E 118°01'0 0.0
2018-Jun-17 06:00N 24°27' E 118°01'0 0.0
2018-Jun-17 05:27N 24°27' E 118°01'0 0.0
2018-Jun-17 05:00N 24°27' E 118°01'0 0.0
2018-Jun-17 04:30N 24°27' E 118°01'0 0.0
2018-Jun-17 04:00N 24°27' E 118°01'0 0.0
2018-Jun-17 03:30N 24°27' E 118°01'0 0.0
2018-Jun-17 03:00N 24°27' E 118°01'0 0.0
2018-Jun-17 02:30N 24°27' E 118°01'0 0.0
2018-Jun-17 02:00N 24°27' E 118°01'0 0.0
2018-Jun-17 01:30N 24°27' E 118°01'0 0.0
2018-Jun-17 01:00N 24°27' E 118°01'0 0.0
2018-Jun-17 00:27N 24°27' E 118°01'0 0.0
2018-Jun-17 00:00N 24°27' E 118°01'1 2.5
2018-Jun-16 23:30N 24°26' E 118°02'510.8
2018-Jun-16 23:00N 24°23' E 118°07'5 9.6
2018-Jun-16 22:30N 24°20' E 118°11'1012.0
2018-Jun-16 21:39N 24°12' E 118°18'212.8
2018-Jun-16 21:28N 24°12' E 118°21'433 9.7
2018-Jun-15 00:39N 30°37' E 122°03'1 5.8
2018-Jun-15 00:29N 30°36' E 122°04'29 2.1
2018-Jun-14 10:54N 30°28' E 122°36'  

Dump ship's entire track history